sensor_id;sensor_type;location;lat;lon;timestamp;P1;durP1;ratioP1;P2;durP2;ratioP2
67685;SDS011;54469;52.090;4.312;2023-06-22T00:00:03;22.2;;;11.8;;
67685;SDS011;54469;52.090;4.312;2023-06-22T00:05:03;22.2;;;11.8;;
67685;SDS011;54469;52.090;4.312;2023-06-22T00:10:03;22.2;;;11.8;;
67685;SDS011;54469;52.090;4.312;2023-06-22T00:15:02;22.2;;;11.8;;
67685;SDS011;54469;52.090;4.312;2023-06-22T00:20:02;22.2;;;11.8;;
67685;SDS011;54469;52.090;4.312;2023-06-22T00:25:03;22.2;;;11.8;;
67685;SDS011;54469;52.090;4.312;2023-06-22T00:30:03;25.6;;;13.7;;
67685;SDS011;54469;52.090;4.312;2023-06-22T00:35:03;25.6;;;13.7;;
67685;SDS011;54469;52.090;4.312;2023-06-22T00:40:02;25.6;;;13.7;;
67685;SDS011;54469;52.090;4.312;2023-06-22T00:45:02;25.6;;;13.7;;
67685;SDS011;54469;52.090;4.312;2023-06-22T00:50:03;25.6;;;13.7;;
67685;SDS011;54469;52.090;4.312;2023-06-22T00:55:02;22.6;;;12.8;;
67685;SDS011;54469;52.090;4.312;2023-06-22T01:00:03;22.6;;;12.8;;
67685;SDS011;54469;52.090;4.312;2023-06-22T01:05:03;22.6;;;12.8;;
67685;SDS011;54469;52.090;4.312;2023-06-22T01:10:04;22.6;;;12.8;;
67685;SDS011;54469;52.090;4.312;2023-06-22T01:15:04;22.6;;;12.8;;
67685;SDS011;54469;52.090;4.312;2023-06-22T01:20:03;25.7;;;13.1;;
67685;SDS011;54469;52.090;4.312;2023-06-22T01:25:06;25.7;;;13.1;;
67685;SDS011;54469;52.090;4.312;2023-06-22T01:30:03;22.2;;;12.9;;
67685;SDS011;54469;52.090;4.312;2023-06-22T01:35:04;22.2;;;12.9;;
67685;SDS011;54469;52.090;4.312;2023-06-22T01:40:02;22.2;;;12.9;;
67685;SDS011;54469;52.090;4.312;2023-06-22T01:45:03;22.2;;;12.9;;
67685;SDS011;54469;52.090;4.312;2023-06-22T01:50:03;22.2;;;12.9;;
67685;SDS011;54469;52.090;4.312;2023-06-22T01:55:02;26;;;13.1;;
67685;SDS011;54469;52.090;4.312;2023-06-22T02:00:03;26;;;13.1;;
67685;SDS011;54469;52.090;4.312;2023-06-22T02:05:03;27.9;;;14.2;;
67685;SDS011;54469;52.090;4.312;2023-06-22T02:10:02;30.9;;;15.1;;
67685;SDS011;54469;52.090;4.312;2023-06-22T02:15:03;27.9;;;14.7;;
67685;SDS011;54469;52.090;4.312;2023-06-22T02:20:03;30.7;;;14.3;;
67685;SDS011;54469;52.090;4.312;2023-06-22T02:25:03;27.5;;;14.1;;
67685;SDS011;54469;52.090;4.312;2023-06-22T02:30:03;27.5;;;14.1;;
67685;SDS011;54469;52.090;4.312;2023-06-22T02:35:02;27.5;;;14.1;;
67685;SDS011;54469;52.090;4.312;2023-06-22T02:40:02;23.1;;;12.6;;
67685;SDS011;54469;52.090;4.312;2023-06-22T02:45:03;23.1;;;12.6;;
67685;SDS011;54469;52.090;4.312;2023-06-22T02:50:02;25.3;;;13.2;;
67685;SDS011;54469;52.090;4.312;2023-06-22T02:55:02;25.3;;;13.2;;
67685;SDS011;54469;52.090;4.312;2023-06-22T03:00:03;25.3;;;13.2;;
67685;SDS011;54469;52.090;4.312;2023-06-22T03:05:02;27.8;;;14.4;;
67685;SDS011;54469;52.090;4.312;2023-06-22T03:10:03;27.8;;;14.4;;
67685;SDS011;54469;52.090;4.312;2023-06-22T03:15:03;27.8;;;14.4;;
67685;SDS011;54469;52.090;4.312;2023-06-22T03:20:03;27.8;;;14.4;;
67685;SDS011;54469;52.090;4.312;2023-06-22T03:25:02;27.8;;;14.4;;
67685;SDS011;54469;52.090;4.312;2023-06-22T03:30:02;27.8;;;14.4;;
67685;SDS011;54469;52.090;4.312;2023-06-22T03:35:02;36.1;;;17.399999999999995;;
67685;SDS011;54469;52.090;4.312;2023-06-22T03:40:03;36.1;;;17.399999999999995;;
67685;SDS011;54469;52.090;4.312;2023-06-22T03:45:03;32.6;;;15.5;;
67685;SDS011;54469;52.090;4.312;2023-06-22T03:50:02;34.79999999999999;;;16.3;;
67685;SDS011;54469;52.090;4.312;2023-06-22T03:55:03;34.79999999999999;;;16.3;;
67685;SDS011;54469;52.090;4.312;2023-06-22T04:00:03;36.4;;;17.3;;
67685;SDS011;54469;52.090;4.312;2023-06-22T04:05:02;38.5;;;18.2;;
67685;SDS011;54469;52.090;4.312;2023-06-22T04:10:03;38.5;;;18.2;;
67685;SDS011;54469;52.090;4.312;2023-06-22T04:15:03;38.5;;;18.2;;
67685;SDS011;54469;52.090;4.312;2023-06-22T04:20:02;34.29999999999999;;;17.899999999999995;;
67685;SDS011;54469;52.090;4.312;2023-06-22T04:25:02;36.29999999999999;;;18;;
67685;SDS011;54469;52.090;4.312;2023-06-22T04:30:03;38.29999999999999;;;17.600000000000005;;
67685;SDS011;54469;52.090;4.312;2023-06-22T04:35:03;32;;;17;;
67685;SDS011;54469;52.090;4.312;2023-06-22T04:40:03;32;;;17;;
67685;SDS011;54469;52.090;4.312;2023-06-22T04:45:03;32;;;17;;
67685;SDS011;54469;52.090;4.312;2023-06-22T04:50:03;32;;;17;;
67685;SDS011;54469;52.090;4.312;2023-06-22T04:55:03;32;;;17;;
67685;SDS011;54469;52.090;4.312;2023-06-22T05:00:02;32;;;17;;
67685;SDS011;54469;52.090;4.312;2023-06-22T05:05:02;32;;;17;;
67685;SDS011;54469;52.090;4.312;2023-06-22T05:10:03;32;;;17;;
67685;SDS011;54469;52.090;4.312;2023-06-22T05:15:02;32;;;17;;
67685;SDS011;54469;52.090;4.312;2023-06-22T05:20:02;32;;;17;;
67685;SDS011;54469;52.090;4.312;2023-06-22T05:25:02;29.6;;;16.5;;
67685;SDS011;54469;52.090;4.312;2023-06-22T05:30:03;34;;;17.5;;
67685;SDS011;54469;52.090;4.312;2023-06-22T05:35:03;34;;;17.5;;
67685;SDS011;54469;52.090;4.312;2023-06-22T05:40:03;34;;;17.5;;
67685;SDS011;54469;52.090;4.312;2023-06-22T05:45:03;32.9;;;18.5;;
67685;SDS011;54469;52.090;4.312;2023-06-22T05:50:02;32.7;;;17.2;;
67685;SDS011;54469;52.090;4.312;2023-06-22T05:55:02;30;;;16;;
67685;SDS011;54469;52.090;4.312;2023-06-22T06:00:03;30;;;16;;
67685;SDS011;54469;52.090;4.312;2023-06-22T06:05:03;30;;;16;;
67685;SDS011;54469;52.090;4.312;2023-06-22T06:10:03;25.2;;;14.2;;
67685;SDS011;54469;52.090;4.312;2023-06-22T06:15:02;25.2;;;14.2;;
67685;SDS011;54469;52.090;4.312;2023-06-22T06:20:02;25.2;;;14.2;;
67685;SDS011;54469;52.090;4.312;2023-06-22T06:25:03;25.2;;;14.2;;
67685;SDS011;54469;52.090;4.312;2023-06-22T06:30:03;24.8;;;13.1;;
67685;SDS011;54469;52.090;4.312;2023-06-22T06:35:03;21;;;11.2;;
67685;SDS011;54469;52.090;4.312;2023-06-22T06:40:03;21;;;11.2;;
67685;SDS011;54469;52.090;4.312;2023-06-22T06:45:03;17.100000000000005;;;10.5;;
67685;SDS011;54469;52.090;4.312;2023-06-22T06:50:03;17.100000000000005;;;10.5;;
67685;SDS011;54469;52.090;4.312;2023-06-22T06:55:02;19.100000000000005;;;9.6;;
67685;SDS011;54469;52.090;4.312;2023-06-22T07:00:02;14.5;;;8.800000000000002;;
67685;SDS011;54469;52.090;4.312;2023-06-22T07:05:03;14.5;;;8.800000000000002;;
67685;SDS011;54469;52.090;4.312;2023-06-22T07:10:02;14.5;;;8.800000000000002;;
67685;SDS011;54469;52.090;4.312;2023-06-22T07:15:02;13.7;;;7.4;;
67685;SDS011;54469;52.090;4.312;2023-06-22T07:20:03;10.199999999999998;;;6.9;;
67685;SDS011;54469;52.090;4.312;2023-06-22T07:25:02;10.199999999999998;;;6.9;;
67685;SDS011;54469;52.090;4.312;2023-06-22T07:30:02;10.199999999999998;;;6.9;;
67685;SDS011;54469;52.090;4.312;2023-06-22T07:35:03;10.199999999999998;;;6.9;;
67685;SDS011;54469;52.090;4.312;2023-06-22T07:40:02;11;;;5.7;;
67685;SDS011;54469;52.090;4.312;2023-06-22T07:45:02;11;;;5.7;;
67685;SDS011;54469;52.090;4.312;2023-06-22T07:50:02;10.9;;;7.3;;
67685;SDS011;54469;52.090;4.312;2023-06-22T07:55:03;8.9;;;5.6;;
67685;SDS011;54469;52.090;4.312;2023-06-22T08:00:04;8.9;;;5.6;;
67685;SDS011;54469;52.090;4.312;2023-06-22T08:05:03;12.5;;;5.8;;
67685;SDS011;54469;52.090;4.312;2023-06-22T08:10:02;7.5;;;5;;
67685;SDS011;54469;52.090;4.312;2023-06-22T08:15:02;7.5;;;5;;
67685;SDS011;54469;52.090;4.312;2023-06-22T08:20:02;7.5;;;5;;
67685;SDS011;54469;52.090;4.312;2023-06-22T08:25:03;4.6;;;3.1;;
67685;SDS011;54469;52.090;4.312;2023-06-22T08:30:03;6;;;4.6;;
67685;SDS011;54469;52.090;4.312;2023-06-22T08:35:03;6;;;4.6;;
67685;SDS011;54469;52.090;4.312;2023-06-22T08:40:03;4.9;;;3.1;;
67685;SDS011;54469;52.090;4.312;2023-06-22T08:45:02;4.9;;;3.1;;
67685;SDS011;54469;52.090;4.312;2023-06-22T08:50:03;4.9;;;3.1;;
67685;SDS011;54469;52.090;4.312;2023-06-22T08:55:03;4.9;;;3.1;;
67685;SDS011;54469;52.090;4.312;2023-06-22T09:00:02;7.4;;;4.2;;
67685;SDS011;54469;52.090;4.312;2023-06-22T09:05:03;7.4;;;4.2;;
67685;SDS011;54469;52.090;4.312;2023-06-22T09:10:02;4.8;;;3.5;;
67685;SDS011;54469;52.090;4.312;2023-06-22T09:15:02;4.8;;;3.5;;
67685;SDS011;54469;52.090;4.312;2023-06-22T09:20:03;9.5;;;5;;
67685;SDS011;54469;52.090;4.312;2023-06-22T09:25:03;6.3;;;3;;
67685;SDS011;54469;52.090;4.312;2023-06-22T09:30:03;6.3;;;3;;
67685;SDS011;54469;52.090;4.312;2023-06-22T09:35:03;6.3;;;3;;
67685;SDS011;54469;52.090;4.312;2023-06-22T09:40:03;6.3;;;3;;
67685;SDS011;54469;52.090;4.312;2023-06-22T09:45:03;6.3;;;3;;
67685;SDS011;54469;52.090;4.312;2023-06-22T09:50:03;6.3;;;3;;
67685;SDS011;54469;52.090;4.312;2023-06-22T09:55:03;6.3;;;3;;
67685;SDS011;54469;52.090;4.312;2023-06-22T10:00:03;6.3;;;3;;
67685;SDS011;54469;52.090;4.312;2023-06-22T10:05:03;7.1;;;4.5;;
67685;SDS011;54469;52.090;4.312;2023-06-22T10:10:03;11.9;;;6.9;;
67685;SDS011;54469;52.090;4.312;2023-06-22T10:15:02;11.9;;;6.9;;
67685;SDS011;54469;52.090;4.312;2023-06-22T10:20:02;18.7;;;8.800000000000002;;
67685;SDS011;54469;52.090;4.312;2023-06-22T10:25:03;18.7;;;8.800000000000002;;
67685;SDS011;54469;52.090;4.312;2023-06-22T10:30:03;14.8;;;9.9;;
67685;SDS011;54469;52.090;4.312;2023-06-22T10:35:03;13.4;;;7.8;;
67685;SDS011;54469;52.090;4.312;2023-06-22T10:40:02;13.4;;;7.8;;
67685;SDS011;54469;52.090;4.312;2023-06-22T10:45:02;13.4;;;7.8;;
67685;SDS011;54469;52.090;4.312;2023-06-22T10:50:03;11;;;7.7;;
67685;SDS011;54469;52.090;4.312;2023-06-22T10:55:03;10.1;;;6.2;;
67685;SDS011;54469;52.090;4.312;2023-06-22T11:00:03;10.1;;;6.2;;
67685;SDS011;54469;52.090;4.312;2023-06-22T11:05:03;11.7;;;4.7;;
67685;SDS011;54469;52.090;4.312;2023-06-22T11:10:03;8.699999999999998;;;4.9;;
67685;SDS011;54469;52.090;4.312;2023-06-22T11:15:03;10.9;;;4.7;;
67685;SDS011;54469;52.090;4.312;2023-06-22T11:20:02;7.4;;;4.2;;
67685;SDS011;54469;52.090;4.312;2023-06-22T11:25:02;7.4;;;4.2;;
67685;SDS011;54469;52.090;4.312;2023-06-22T11:30:03;11;;;6;;
67685;SDS011;54469;52.090;4.312;2023-06-22T11:35:03;6.6;;;4.5;;
67685;SDS011;54469;52.090;4.312;2023-06-22T11:40:03;9.9;;;4.6;;
67685;SDS011;54469;52.090;4.312;2023-06-22T11:45:04;9.9;;;4.6;;
67685;SDS011;54469;52.090;4.312;2023-06-22T11:50:02;9.9;;;4.6;;
67685;SDS011;54469;52.090;4.312;2023-06-22T11:55:03;9.9;;;4.6;;
67685;SDS011;54469;52.090;4.312;2023-06-22T12:00:03;9.9;;;4.6;;
67685;SDS011;54469;52.090;4.312;2023-06-22T12:05:02;10;;;6;;
67685;SDS011;54469;52.090;4.312;2023-06-22T12:10:02;10;;;6;;
67685;SDS011;54469;52.090;4.312;2023-06-22T12:15:03;18.2;;;8.9;;
67685;SDS011;54469;52.090;4.312;2023-06-22T12:20:03;13.4;;;8.300000000000002;;
67685;SDS011;54469;52.090;4.312;2023-06-22T12:25:03;15.2;;;9.6;;
67685;SDS011;54469;52.090;4.312;2023-06-22T12:30:03;19.5;;;10.8;;
67685;SDS011;54469;52.090;4.312;2023-06-22T12:35:03;19.5;;;10.8;;
67685;SDS011;54469;52.090;4.312;2023-06-22T12:40:02;13;;;10.4;;
67685;SDS011;54469;52.090;4.312;2023-06-22T12:45:02;20.399999999999995;;;10.9;;
67685;SDS011;54469;52.090;4.312;2023-06-22T12:50:02;17.100000000000005;;;11.1;;
67685;SDS011;54469;52.090;4.312;2023-06-22T12:55:03;14.3;;;10.1;;
67685;SDS011;54469;52.090;4.312;2023-06-22T13:00:02;54.4;;;23.3;;
67685;SDS011;54469;52.090;4.312;2023-06-22T13:05:02;15.6;;;9.1;;
67685;SDS011;54469;52.090;4.312;2023-06-22T13:10:02;15.6;;;9.1;;
67685;SDS011;54469;52.090;4.312;2023-06-22T13:15:02;12.2;;;9.1;;
67685;SDS011;54469;52.090;4.312;2023-06-22T13:20:03;17.399999999999995;;;8.6;;
67685;SDS011;54469;52.090;4.312;2023-06-22T13:25:02;11.7;;;8.1;;
67685;SDS011;54469;52.090;4.312;2023-06-22T13:30:02;13.7;;;8.1;;
67685;SDS011;54469;52.090;4.312;2023-06-22T13:35:03;19.7;;;8.6;;
67685;SDS011;54469;52.090;4.312;2023-06-22T13:40:03;14;;;8.4;;
67685;SDS011;54469;52.090;4.312;2023-06-22T13:45:03;14;;;8.4;;
67685;SDS011;54469;52.090;4.312;2023-06-22T13:50:03;14;;;8.4;;
67685;SDS011;54469;52.090;4.312;2023-06-22T13:55:02;14;;;8.4;;
67685;SDS011;54469;52.090;4.312;2023-06-22T14:00:02;14;;;8.4;;
67685;SDS011;54469;52.090;4.312;2023-06-22T14:05:03;14;;;8.4;;
67685;SDS011;54469;52.090;4.312;2023-06-22T14:10:02;13.5;;;6.8;;
67685;SDS011;54469;52.090;4.312;2023-06-22T14:15:03;10.9;;;6.4;;
67685;SDS011;54469;52.090;4.312;2023-06-22T14:20:03;14.1;;;7.2;;
67685;SDS011;54469;52.090;4.312;2023-06-22T14:25:04;10.5;;;6.2;;
67685;SDS011;54469;52.090;4.312;2023-06-22T14:30:02;14.7;;;7.4;;
67685;SDS011;54469;52.090;4.312;2023-06-22T14:35:02;12.4;;;6.7;;
67685;SDS011;54469;52.090;4.312;2023-06-22T14:40:03;10.199999999999998;;;7.3;;
67685;SDS011;54469;52.090;4.312;2023-06-22T14:45:03;13.1;;;7;;
67685;SDS011;54469;52.090;4.312;2023-06-22T14:50:03;15.9;;;7.9;;
67685;SDS011;54469;52.090;4.312;2023-06-22T14:55:03;15.9;;;7.9;;
67685;SDS011;54469;52.090;4.312;2023-06-22T15:00:03;14.9;;;9.4;;
67685;SDS011;54469;52.090;4.312;2023-06-22T15:05:02;17.399999999999995;;;9.5;;
67685;SDS011;54469;52.090;4.312;2023-06-22T15:10:02;13.8;;;9;;
67685;SDS011;54469;52.090;4.312;2023-06-22T15:15:03;18.600000000000005;;;10.7;;
67685;SDS011;54469;52.090;4.312;2023-06-22T15:20:03;17.899999999999995;;;9.5;;
67685;SDS011;54469;52.090;4.312;2023-06-22T15:25:02;14.2;;;7.6;;
67685;SDS011;54469;52.090;4.312;2023-06-22T15:30:02;14.2;;;7.6;;
67685;SDS011;54469;52.090;4.312;2023-06-22T15:35:03;14.2;;;7.6;;
67685;SDS011;54469;52.090;4.312;2023-06-22T15:40:03;14.2;;;7.6;;
67685;SDS011;54469;52.090;4.312;2023-06-22T15:45:02;18.5;;;8.199999999999998;;
67685;SDS011;54469;52.090;4.312;2023-06-22T15:50:02;11.3;;;6.3;;
67685;SDS011;54469;52.090;4.312;2023-06-22T15:55:03;11.3;;;6.3;;
67685;SDS011;54469;52.090;4.312;2023-06-22T16:00:03;11.3;;;6.3;;
67685;SDS011;54469;52.090;4.312;2023-06-22T16:05:03;10;;;5;;
67685;SDS011;54469;52.090;4.312;2023-06-22T16:10:02;8.6;;;3.9;;
67685;SDS011;54469;52.090;4.312;2023-06-22T16:15:03;8.6;;;3.9;;
67685;SDS011;54469;52.090;4.312;2023-06-22T16:20:02;8.6;;;3.9;;
67685;SDS011;54469;52.090;4.312;2023-06-22T16:25:03;4.8;;;3.1;;
67685;SDS011;54469;52.090;4.312;2023-06-22T16:30:03;4.8;;;3.1;;
67685;SDS011;54469;52.090;4.312;2023-06-22T16:35:03;4.8;;;3.1;;
67685;SDS011;54469;52.090;4.312;2023-06-22T16:40:02;4.8;;;3.1;;
67685;SDS011;54469;52.090;4.312;2023-06-22T16:45:02;4.8;;;3.1;;
67685;SDS011;54469;52.090;4.312;2023-06-22T16:50:03;4.8;;;3.1;;
67685;SDS011;54469;52.090;4.312;2023-06-22T16:55:03;4.8;;;3.1;;
67685;SDS011;54469;52.090;4.312;2023-06-22T17:00:03;4.8;;;3.1;;
67685;SDS011;54469;52.090;4.312;2023-06-22T17:05:03;4.8;;;3.1;;
67685;SDS011;54469;52.090;4.312;2023-06-22T17:10:03;4.8;;;3.1;;
67685;SDS011;54469;52.090;4.312;2023-06-22T17:15:02;4.8;;;3.1;;
67685;SDS011;54469;52.090;4.312;2023-06-22T17:20:02;4.8;;;3.1;;
67685;SDS011;54469;52.090;4.312;2023-06-22T17:25:02;4.8;;;3.1;;
67685;SDS011;54469;52.090;4.312;2023-06-22T17:30:03;4.8;;;3.1;;
67685;SDS011;54469;52.090;4.312;2023-06-22T17:35:03;4.8;;;3.1;;
67685;SDS011;54469;52.090;4.312;2023-06-22T17:40:03;4.8;;;3.1;;
67685;SDS011;54469;52.090;4.312;2023-06-22T17:45:03;4.8;;;3.1;;
67685;SDS011;54469;52.090;4.312;2023-06-22T17:50:04;4.8;;;3.1;;
67685;SDS011;54469;52.090;4.312;2023-06-22T17:55:03;4.8;;;3.1;;
67685;SDS011;54469;52.090;4.312;2023-06-22T18:00:03;4.8;;;3.1;;
67685;SDS011;54469;52.090;4.312;2023-06-22T18:05:03;4.8;;;3.1;;
67685;SDS011;54469;52.090;4.312;2023-06-22T18:10:03;4.8;;;3.1;;
67685;SDS011;54469;52.090;4.312;2023-06-22T18:15:03;4.8;;;3.1;;
67685;SDS011;54469;52.090;4.312;2023-06-22T18:20:02;4.8;;;3.1;;
67685;SDS011;54469;52.090;4.312;2023-06-22T18:25:02;4.8;;;3.1;;
67685;SDS011;54469;52.090;4.312;2023-06-22T18:30:02;4.8;;;3.1;;
67685;SDS011;54469;52.090;4.312;2023-06-22T18:35:02;4.8;;;3.1;;
67685;SDS011;54469;52.090;4.312;2023-06-22T18:40:03;4.8;;;3.1;;
67685;SDS011;54469;52.090;4.312;2023-06-22T18:45:03;4.8;;;3.1;;
67685;SDS011;54469;52.090;4.312;2023-06-22T18:50:04;4.8;;;3.1;;
67685;SDS011;54469;52.090;4.312;2023-06-22T18:55:03;4.8;;;3.1;;
67685;SDS011;54469;52.090;4.312;2023-06-22T19:00:04;4.8;;;3.1;;
67685;SDS011;54469;52.090;4.312;2023-06-22T19:05:05;4.8;;;3.1;;
67685;SDS011;54469;52.090;4.312;2023-06-22T19:11:11;4.8;;;3.1;;
67685;SDS011;54469;52.090;4.312;2023-06-22T19:15:07;4.8;;;3.1;;
67685;SDS011;54469;52.090;4.312;2023-06-22T19:20:03;4.8;;;3.1;;
67685;SDS011;54469;52.090;4.312;2023-06-22T19:25:03;4.8;;;3.1;;
67685;SDS011;54469;52.090;4.312;2023-06-22T19:30:03;4.8;;;3.1;;
67685;SDS011;54469;52.090;4.312;2023-06-22T19:35:03;4.8;;;3.1;;
67685;SDS011;54469;52.090;4.312;2023-06-22T19:40:02;4.8;;;3.1;;
67685;SDS011;54469;52.090;4.312;2023-06-22T19:45:03;4.8;;;3.1;;
67685;SDS011;54469;52.090;4.312;2023-06-22T19:50:03;4.8;;;3.1;;
67685;SDS011;54469;52.090;4.312;2023-06-22T19:55:03;4.8;;;3.1;;
67685;SDS011;54469;52.090;4.312;2023-06-22T20:00:03;4.8;;;3.1;;
67685;SDS011;54469;52.090;4.312;2023-06-22T20:05:03;4.8;;;3.1;;
67685;SDS011;54469;52.090;4.312;2023-06-22T20:10:11;4.8;;;3.1;;
67685;SDS011;54469;52.090;4.312;2023-06-22T20:15:19;4.8;;;3.1;;
67685;SDS011;54469;52.090;4.312;2023-06-22T20:20:02;4.8;;;3.1;;
67685;SDS011;54469;52.090;4.312;2023-06-22T20:25:03;4.8;;;3.1;;
67685;SDS011;54469;52.090;4.312;2023-06-22T20:30:11;4.8;;;3.1;;
67685;SDS011;54469;52.090;4.312;2023-06-22T20:35:03;4.8;;;3.1;;
67685;SDS011;54469;52.090;4.312;2023-06-22T20:40:03;4.8;;;3.1;;
67685;SDS011;54469;52.090;4.312;2023-06-22T20:45:03;4.8;;;3.1;;
67685;SDS011;54469;52.090;4.312;2023-06-22T20:50:02;4.8;;;3.1;;
67685;SDS011;54469;52.090;4.312;2023-06-22T20:55:02;4.8;;;3.1;;
67685;SDS011;54469;52.090;4.312;2023-06-22T21:00:02;4.8;;;3.1;;
67685;SDS011;54469;52.090;4.312;2023-06-22T21:05:02;4.8;;;3.1;;
67685;SDS011;54469;52.090;4.312;2023-06-22T21:10:03;4.8;;;3.1;;
67685;SDS011;54469;52.090;4.312;2023-06-22T21:15:03;4.8;;;3.1;;
67685;SDS011;54469;52.090;4.312;2023-06-22T21:20:02;4.8;;;3.1;;
67685;SDS011;54469;52.090;4.312;2023-06-22T21:25:03;4.8;;;3.1;;
67685;SDS011;54469;52.090;4.312;2023-06-22T21:30:02;4.8;;;3.1;;
67685;SDS011;54469;52.090;4.312;2023-06-22T21:35:02;4.8;;;3.1;;
67685;SDS011;54469;52.090;4.312;2023-06-22T21:40:03;4.8;;;3.1;;
67685;SDS011;54469;52.090;4.312;2023-06-22T21:45:03;4.8;;;3.1;;
67685;SDS011;54469;52.090;4.312;2023-06-22T21:50:03;4.8;;;3.1;;
67685;SDS011;54469;52.090;4.312;2023-06-22T21:55:03;4.8;;;3.1;;
67685;SDS011;54469;52.090;4.312;2023-06-22T22:00:02;4.8;;;3.1;;
67685;SDS011;54469;52.090;4.312;2023-06-22T22:05:07;4.8;;;3.1;;
67685;SDS011;54469;52.090;4.312;2023-06-22T22:10:03;4.8;;;3.1;;
67685;SDS011;54469;52.090;4.312;2023-06-22T22:15:02;4.8;;;3.1;;
67685;SDS011;54469;52.090;4.312;2023-06-22T22:20:02;4.8;;;3.1;;
67685;SDS011;54469;52.090;4.312;2023-06-22T22:25:03;4.8;;;3.1;;
67685;SDS011;54469;52.090;4.312;2023-06-22T22:30:03;4.8;;;3.1;;
67685;SDS011;54469;52.090;4.312;2023-06-22T22:35:02;4.8;;;3.1;;
67685;SDS011;54469;52.090;4.312;2023-06-22T22:40:02;4.8;;;3.1;;
67685;SDS011;54469;52.090;4.312;2023-06-22T22:45:03;4.8;;;3.1;;
67685;SDS011;54469;52.090;4.312;2023-06-22T22:50:03;4.8;;;3.1;;
67685;SDS011;54469;52.090;4.312;2023-06-22T22:55:03;4.8;;;3.1;;
67685;SDS011;54469;52.090;4.312;2023-06-22T23:00:03;4.8;;;3.1;;
67685;SDS011;54469;52.090;4.312;2023-06-22T23:05:03;4.8;;;3.1;;
67685;SDS011;54469;52.090;4.312;2023-06-22T23:10:02;4.8;;;3.1;;
67685;SDS011;54469;52.090;4.312;2023-06-22T23:15:02;4.8;;;3.1;;
67685;SDS011;54469;52.090;4.312;2023-06-22T23:20:03;4.8;;;3.1;;
67685;SDS011;54469;52.090;4.312;2023-06-22T23:25:03;4.8;;;3.1;;
67685;SDS011;54469;52.090;4.312;2023-06-22T23:30:02;4.8;;;3.1;;
67685;SDS011;54469;52.090;4.312;2023-06-22T23:35:04;4.8;;;3.1;;
67685;SDS011;54469;52.090;4.312;2023-06-22T23:40:03;4.8;;;3.1;;
67685;SDS011;54469;52.090;4.312;2023-06-22T23:45:03;4.8;;;3.1;;
67685;SDS011;54469;52.090;4.312;2023-06-22T23:50:02;4.8;;;3.1;;
67685;SDS011;54469;52.090;4.312;2023-06-22T23:55:02;4.8;;;3.1;;
